Time;durP1;ratioP1;P1;durP2;ratioP2;P2;SDS_P1;SDS_P2;PMS_P1;PMS_P2;Temp;Humidity;BMP_temperature;BMP_pressure;BME280_temperature;BME280_humidity;BME280_pressure;Samples;Min_cycle;Max_cycle;Signal;HPM_P1;HPM_P2
2021/07/30 00:00:47;;;;;;;;;;;15.00;99.90;;;15.08;100.00;100666.06;5072835;28;20023;-66
2021/07/30 00:03:15;;;;;;;;;;;15.10;99.90;;;15.24;100.00;100664.44;5071305;28;19931;-64
2021/07/30 00:05:42;;;;;;;;;;;15.30;99.90;;;15.36;100.00;100670.03;5072498;28;19956;-64
2021/07/30 00:08:12;;;;;;;;;;;15.40;99.90;;;15.37;100.00;100660.75;5072886;28;19936;-65
2021/07/30 00:10:40;;;;;;;;;;;15.40;99.90;;;15.43;100.00;100664.09;5072730;28;20266;-65
2021/07/30 00:13:08;;;;;;;;;;;15.50;99.90;;;15.29;100.00;100667.00;5071589;28;19924;-65
2021/07/30 00:15:35;;;;;;;;;;;15.40;99.90;;;15.18;100.00;100663.81;5072137;28;20393;-65
2021/07/30 00:18:04;;;;;;;;;;;15.30;99.90;;;15.13;100.00;100665.94;5072680;28;19925;-65
2021/07/30 00:20:33;;;;;;;;;;;15.20;99.90;;;15.11;100.00;100659.97;5072687;28;19925;-65
2021/07/30 00:23:00;;;;;;;;;;;15.10;99.90;;;15.17;100.00;100664.13;5071440;28;19935;-65
2021/07/30 00:25:30;;;;;;;;;;;15.20;99.90;;;15.16;100.00;100660.63;5072215;28;19947;-65
2021/07/30 00:27:58;;;;;;;;;;;15.20;99.90;;;15.19;100.00;100670.88;5072582;28;20338;-65
2021/07/30 00:30:26;;;;;;;;;;;15.20;99.90;;;15.24;100.00;100670.72;5072604;28;19931;-65
2021/07/30 00:32:53;;;;;;;;;;;15.30;99.90;;;15.24;100.00;100672.63;5071566;28;19934;-65
2021/07/30 00:35:21;;;;;;;;;;;15.30;99.90;;;15.20;100.00;100667.03;5071794;28;19931;-66
2021/07/30 00:37:49;;;;;;;;;;;15.30;99.90;;;15.22;100.00;100670.25;5072591;28;19924;-65
2021/07/30 00:40:17;;;;;;;;;;;15.40;99.90;;;15.39;100.00;100674.81;5072356;28;19947;-65
2021/07/30 00:42:51;;;;;;;;;;;15.70;99.90;;;15.51;100.00;100676.91;5071247;28;19931;-65
2021/07/30 00:45:20;;;;;;;;;;;15.70;99.90;;;15.39;100.00;100676.75;5071915;28;20026;-65
2021/07/30 00:47:48;;;;;;;;;;;15.60;99.90;;;15.17;100.00;100675.84;5072533;28;19925;-66
2021/07/30 00:50:17;;;;;;;;;;;15.40;99.90;;;15.03;100.00;100683.41;5072293;28;19925;-65
2021/07/30 00:52:45;;;;;;;;;;;15.30;99.90;;;15.01;100.00;100679.41;5071250;28;19930;-65
2021/07/30 00:55:12;;;;;;;;;;;15.20;99.90;;;15.17;100.00;100667.66;5071742;28;19942;-65
2021/07/30 00:57:41;;;;;;;;;;;15.30;99.90;;;15.41;100.00;100671.78;5072277;28;20283;-65
2021/07/30 01:00:12;;;;;;;;;;;15.50;99.90;;;15.28;100.00;100671.66;5072237;28;19948;-65
2021/07/30 01:02:40;;;;;;;;;;;15.50;99.90;;;15.15;100.00;100667.19;5071278;28;19931;-65
2021/07/30 01:05:09;;;;;;;;;;;15.40;99.90;;;15.08;100.00;100676.97;5071325;28;19935;-65
2021/07/30 01:07:37;;;;;;;;;;;15.30;99.90;;;15.08;100.00;100671.53;5072178;28;19931;-65
2021/07/30 01:10:05;;;;;;;;;;;15.30;99.90;;;15.21;100.00;100667.81;5072180;28;19925;-66
2021/07/30 01:12:33;;;;;;;;;;;15.30;99.90;;;15.41;100.00;100671.78;5071237;28;19928;-66
2021/07/30 01:15:01;;;;;;;;;;;15.40;99.90;;;15.49;100.00;100673.72;5073716;28;19925;-66
2021/07/30 01:17:30;;;;;;;;;;;15.50;99.90;;;15.42;100.00;100681.53;5075882;28;19924;-65
2021/07/30 01:19:58;;;;;;;;;;;;;;;15.27;100.00;100683.69;5075868;28;19928;-64
2021/07/30 01:22:28;;;;;;;;;;;;;;;15.11;100.00;100677.13;5075137;28;20290;-66
2021/07/30 01:24:58;;;;;;;;;;;15.20;99.90;;;14.95;100.00;100676.06;5075231;28;19928;-64
2021/07/30 01:27:26;;;;;;;;;;;15.20;99.90;;;14.85;100.00;100670.94;5075763;28;19966;-66
2021/07/30 01:29:54;;;;;;;;;;;15.10;99.90;;;14.89;100.00;100660.19;5075719;28;19971;-65
2021/07/30 01:32:22;;;;;;;;;;;15.10;99.90;;;15.11;100.00;100662.72;5074436;28;19932;-64
2021/07/30 01:34:50;;;;;;;;;;;15.20;99.90;;;15.24;100.00;100657.09;5074944;28;19932;-65
2021/07/30 01:37:17;;;;;;;;;;;15.30;99.90;;;15.28;100.00;100649.88;5075421;28;20397;-65
2021/07/30 01:39:45;;;;;;;;;;;15.30;99.90;;;15.15;100.00;100652.78;5075625;28;20382;-65
2021/07/30 01:42:15;;;;;;;;;;;15.30;99.90;;;15.06;100.00;100652.81;5074481;28;19929;-66
2021/07/30 01:44:42;;;;;;;;;;;15.20;99.90;;;14.98;100.00;100656.34;5074635;28;19924;-66
2021/07/30 01:47:10;;;;;;;;;;;15.10;99.90;;;14.85;100.00;100651.06;5075491;28;20302;-65
2021/07/30 01:49:38;;;;;;;;;;;15.10;99.90;;;14.82;100.00;100655.25;5075234;28;19925;-65
2021/07/30 01:52:07;;;;;;;;;;;15.00;99.90;;;14.91;100.00;100658.75;5074533;28;19924;-65
2021/07/30 01:54:35;;;;;;;;;;;15.00;99.90;;;14.92;100.00;100648.66;5074259;28;20023;-66
2021/07/30 01:57:03;;;;;;;;;;;15.00;99.90;;;14.88;100.00;100647.69;5075194;28;20371;-65
2021/07/30 01:59:32;;;;;;;;;;;15.00;99.90;;;14.99;100.00;100644.31;5075153;28;20006;-65
2021/07/30 02:02:00;;;;;;;;;;;15.10;99.90;;;15.11;100.00;100649.09;5074151;28;19924;-65
2021/07/30 02:04:29;;;;;;;;;;;15.10;99.90;;;15.13;100.00;100655.03;5074339;28;19925;-66
2021/07/30 02:06:57;;;;;;;;;;;15.20;99.90;;;15.03;100.00;100658.91;5075092;28;19924;-65
2021/07/30 02:09:24;;;;;;;;;;;15.20;99.90;;;14.90;100.00;100648.97;5075151;28;19925;-66
2021/07/30 02:11:53;;;;;;;;;;;15.00;99.90;;;14.84;100.00;100650.25;5073864;28;19935;-63
2021/07/30 02:14:24;;;;;;;;;;;14.90;99.90;;;14.88;100.00;100653.16;5074074;28;20328;-65
2021/07/30 02:16:54;;;;;;;;;;;14.90;99.90;;;14.81;100.00;100656.34;5074856;28;19935;-65
2021/07/30 02:19:23;;;;;;;;;;;14.90;99.90;;;14.76;100.00;100667.41;5074880;28;20256;-65
2021/07/30 02:21:53;;;;;;;;;;;14.90;99.90;;;14.81;100.00;100661.00;5073900;28;20477;-66
2021/07/30 02:24:21;;;;;;;;;;;14.90;99.90;;;14.98;100.00;100666.44;5073721;28;19928;-65
2021/07/30 02:26:49;;;;;;;;;;;15.00;99.90;;;15.09;100.00;100657.59;5074453;28;19924;-65
2021/07/30 02:29:17;;;;;;;;;;;15.10;99.90;;;15.14;100.00;100654.69;5074695;28;19947;-64
2021/07/30 02:31:45;;;;;;;;;;;15.20;99.90;;;15.13;100.00;100650.38;5073723;28;19925;-65
2021/07/30 02:34:14;;;;;;;;;;;15.10;99.90;;;15.01;100.00;100652.97;5073664;28;19929;-65
2021/07/30 02:36:42;;;;;;;;;;;15.10;99.90;;;14.92;100.00;100649.47;5074457;28;19931;-66
2021/07/30 02:39:10;;;;;;;;;;;15.00;99.90;;;14.92;100.00;100656.84;5074614;28;19924;-66
2021/07/30 02:41:38;;;;;;;;;;;15.00;99.90;;;15.00;100.00;100647.84;5073700;28;19935;-65
2021/07/30 02:44:06;;;;;;;;;;;15.00;99.90;;;14.92;100.00;100654.91;5073271;28;19925;-67
2021/07/30 02:46:34;;;;;;;;;;;15.00;99.90;;;14.86;100.00;100649.97;5074306;28;20039;-66
2021/07/30 02:49:01;;;;;;;;;;;14.90;99.90;;;14.85;100.00;100653.78;5074319;28;19951;-65
2021/07/30 02:51:31;;;;;;;;;;;14.80;99.90;;;14.84;100.00;100652.19;5073752;28;19931;-64
2021/07/30 02:53:59;;;;;;;;;;;14.80;99.90;;;14.86;100.00;100645.31;5072706;28;19960;-66
2021/07/30 02:56:27;;;;;;;;;;;14.90;99.90;;;14.90;100.00;100643.53;5074067;28;20039;-65
2021/07/30 02:58:54;;;;;;;;;;;14.90;99.90;;;14.91;100.00;100647.84;5074183;28;19932;-65
2021/07/30 03:01:23;;;;;;;;;;;14.90;99.90;;;14.86;100.00;100650.75;5073972;28;19986;-65
2021/07/30 03:03:51;;;;;;;;;;;14.80;99.90;;;14.83;100.00;100653.31;5072306;28;20019;-65
2021/07/30 03:06:19;;;;;;;;;;;14.80;99.90;;;14.86;100.00;100656.22;5073664;28;19928;-66
2021/07/30 03:08:48;;;;;;;;;;;14.80;99.90;;;14.99;100.00;100665.28;5073938;28;20298;-65
2021/07/30 03:11:16;;;;;;;;;;;15.00;99.90;;;15.07;100.00;100659.84;5073709;28;20027;-65
2021/07/30 03:13:44;;;;;;;;;;;15.00;99.90;;;15.13;100.00;100646.88;5072253;28;19948;-65
2021/07/30 03:16:13;;;;;;;;;;;15.10;99.90;;;15.18;100.00;100647.47;5073651;28;19938;-65
2021/07/30 03:18:44;;;;;;;;;;;15.20;99.90;;;15.23;100.00;100657.41;5073668;28;20038;-65
2021/07/30 03:21:12;;;;;;;;;;;15.30;99.90;;;15.26;100.00;100652.09;5073622;28;19994;-65
2021/07/30 03:23:39;;;;;;;;;;;15.30;99.90;;;15.27;100.00;100644.72;5072597;28;20362;-66
2021/07/30 03:26:10;;;;;;;;;;;15.30;99.90;;;15.27;100.00;100651.00;5073282;28;19924;-65
2021/07/30 03:28:38;;;;;;;;;;;15.30;99.90;;;15.28;100.00;100651.78;5073489;28;20296;-66
2021/07/30 03:31:06;;;;;;;;;;;15.40;99.90;;;15.24;100.00;100648.91;5073456;28;19924;-66
2021/07/30 03:33:34;;;;;;;;;;;15.40;99.90;;;15.31;100.00;100651.94;5072356;28;19925;-66
2021/07/30 03:36:02;;;;;;;;;;;15.40;99.90;;;15.33;100.00;100657.06;5072920;28;20302;-65
2021/07/30 03:38:30;;;;;;;;;;;15.40;99.90;;;15.36;100.00;100666.50;5072773;28;19925;-66
2021/07/30 03:41:02;;;;;;;;;;;15.40;99.90;;;15.38;100.00;100665.03;5073749;28;19931;-65
2021/07/30 03:43:31;;;;;;;;;;;15.40;99.90;;;15.30;100.00;100669.41;5071941;28;19931;-66
2021/07/30 03:45:59;;;;;;;;;;;15.40;99.90;;;15.25;100.00;100664.16;5072861;28;20298;-65
2021/07/30 03:48:27;;;;;;;;;;;15.40;99.90;;;15.27;100.00;100671.97;5073031;28;19924;-66
2021/07/30 03:50:55;;;;;;;;;;;15.50;99.90;;;15.30;100.00;100666.69;5073228;28;19975;-66
2021/07/30 03:53:23;;;;;;;;;;;15.50;99.90;;;15.32;100.00;100669.88;5071895;28;20053;-65
2021/07/30 03:55:51;;;;;;;;;;;15.50;99.90;;;15.32;100.00;100677.25;5072663;28;20294;-66
2021/07/30 03:58:19;;;;;;;;;;;15.50;99.90;;;15.33;100.00;100678.84;5072750;28;19930;-65
2021/07/30 04:00:48;;;;;;;;;;;15.50;99.90;;;15.31;100.00;100676.47;5073054;28;19924;-65
2021/07/30 04:03:16;;;;;;;;;;;15.50;99.90;;;15.32;100.00;100674.50;5071848;28;20019;-66
2021/07/30 04:05:44;;;;;;;;;;;15.50;99.90;;;15.27;100.00;100675.50;5072607;28;20706;-65
2021/07/30 04:08:12;;;;;;;;;;;15.50;99.90;;;15.22;100.00;100683.06;5072804;28;20302;-65
2021/07/30 04:10:40;;;;;;;;;;;15.50;99.90;;;15.20;100.00;100677.91;5072663;28;19924;-65
2021/07/30 04:13:07;;;;;;;;;;;15.40;99.90;;;15.21;100.00;100674.06;5071760;28;19925;-66
2021/07/30 04:15:35;;;;;;;;;;;15.40;99.90;;;15.27;100.00;100670.06;5072123;28;19924;-65
2021/07/30 04:18:05;;;;;;;;;;;15.40;99.90;;;15.31;100.00;100667.50;5072650;28;19924;-65
2021/07/30 04:20:33;;;;;;;;;;;15.50;99.90;;;15.31;100.00;100672.94;5072715;28;19971;-65
2021/07/30 04:23:00;;;;;;;;;;;15.50;99.90;;;15.25;100.00;100675.03;5071431;28;19926;-63
2021/07/30 04:25:28;;;;;;;;;;;15.40;99.90;;;15.12;100.00;100675.22;5071967;28;19928;-63
2021/07/30 04:27:56;;;;;;;;;;;15.40;99.90;;;15.00;100.00;100675.88;5072685;28;20406;-64
2021/07/30 04:30:24;;;;;;;;;;;15.30;99.90;;;14.96;100.00;100674.09;5072613;28;19932;-63
2021/07/30 04:32:52;;;;;;;;;;;15.20;99.90;;;14.98;100.00;100677.31;5071693;28;20433;-64
2021/07/30 04:35:22;;;;;;;;;;;;;;;14.97;100.00;100689.31;5071728;28;19959;-64
2021/07/30 04:37:49;;;;;;;;;;;15.20;99.90;;;14.94;100.00;100681.81;5072341;28;19978;-64
2021/07/30 04:40:18;;;;;;;;;;;15.20;99.90;;;14.96;100.00;100677.63;5072566;28;20023;-63
2021/07/30 04:42:45;;;;;;;;;;;15.20;99.90;;;15.01;100.00;100680.22;5071510;28;20367;-63
2021/07/30 04:45:14;;;;;;;;;;;15.20;99.90;;;15.01;100.00;100684.84;5071846;28;19929;-64
2021/07/30 04:47:41;;;;;;;;;;;15.20;99.90;;;14.96;100.00;100685.81;5072723;28;19925;-64
2021/07/30 04:50:10;;;;;;;;;;;15.10;99.90;;;14.87;100.00;100676.84;5076563;28;20009;-65
2021/07/30 04:52:40;;;;;;;;;;;;;;;14.82;100.00;100679.75;5075552;28;20023;-64
2021/07/30 04:55:09;;;;;;;;;;;15.00;99.90;;;14.90;100.00;100683.56;5075658;28;19974;-64
2021/07/30 04:57:36;;;;;;;;;;;15.00;99.90;;;14.92;100.00;100678.63;5076389;28;19924;-63
2021/07/30 05:00:05;;;;;;;;;;;15.10;99.90;;;14.86;100.00;100682.63;5076443;28;19925;-63
2021/07/30 05:02:34;;;;;;;;;;;15.00;99.90;;;14.82;100.00;100687.91;5075478;28;20031;-63
2021/07/30 05:05:02;;;;;;;;;;;15.00;99.90;;;14.79;100.00;100685.81;5075371;28;19928;-64
2021/07/30 05:07:30;;;;;;;;;;;15.00;99.90;;;14.78;100.00;100695.91;5076392;28;20284;-66
2021/07/30 05:09:59;;;;;;;;;;;15.00;99.90;;;14.78;100.00;100697.81;5076100;28;19925;-64
2021/07/30 05:12:27;;;;;;;;;;;15.00;99.90;;;14.77;100.00;100697.00;5075487;28;19976;-65
2021/07/30 05:14:55;;;;;;;;;;;15.00;99.90;;;14.77;100.00;100690.81;5075062;28;19924;-63
2021/07/30 05:17:23;;;;;;;;;;;15.00;99.90;;;14.87;100.00;100701.34;5076001;28;20378;-63
2021/07/30 05:19:51;;;;;;;;;;;15.00;99.90;;;14.90;100.00;100705.34;5076025;28;19931;-63
2021/07/30 05:22:19;;;;;;;;;;;15.00;99.90;;;14.84;100.00;100712.06;5075299;28;19925;-64
2021/07/30 05:24:46;;;;;;;;;;;15.00;99.90;;;14.84;100.00;100710.16;5074804;28;20375;-64
2021/07/30 05:27:16;;;;;;;;;;;15.00;99.90;;;14.86;100.00;100715.28;5075941;28;19935;-64
2021/07/30 05:29:45;;;;;;;;;;;15.00;99.90;;;14.89;100.00;100718.19;5075749;28;19925;-64
2021/07/30 05:32:13;;;;;;;;;;;15.00;99.90;;;14.89;100.00;100715.47;5075133;28;19993;-65
2021/07/30 05:34:41;;;;;;;;;;;15.00;99.90;;;14.86;100.00;100720.75;5075143;28;19929;-64
2021/07/30 05:37:09;;;;;;;;;;;14.90;99.90;;;14.79;100.00;100732.09;5075685;28;19924;-63
2021/07/30 05:39:36;;;;;;;;;;;14.90;99.90;;;14.71;100.00;100730.97;5075649;28;19966;-63
2021/07/30 05:42:04;;;;;;;;;;;14.80;99.90;;;14.62;100.00;100732.88;5074659;28;20291;-65
2021/07/30 05:44:35;;;;;;;;;;;14.80;99.90;;;14.54;100.00;100736.41;5074975;28;19928;-64
2021/07/30 05:47:03;;;;;;;;;;;;;;;14.43;100.00;100729.66;5075638;28;19931;-63
2021/07/30 05:49:32;;;;;;;;;;;;;;;14.40;100.00;100730.28;5075401;28;20383;-63
2021/07/30 05:51:59;;;;;;;;;;;;;;;14.43;100.00;100726.94;5074916;28;20019;-63
2021/07/30 05:54:27;;;;;;;;;;;;;;;14.48;100.00;100732.22;5074445;28;19924;-64
2021/07/30 05:56:56;;;;;;;;;;;;;;;14.57;100.00;100733.03;5075305;28;19947;-64
2021/07/30 05:59:24;;;;;;;;;;;;;;;14.68;100.00;100736.25;5074771;28;19932;-64
2021/07/30 06:01:53;;;;;;;;;;;;;;;14.87;100.00;100739.47;5074551;28;19925;-63
2021/07/30 06:04:21;;;;;;;;;;;;;;;15.67;100.00;100740.66;5074414;28;20296;-63
2021/07/30 06:06:49;;;;;;;;;;;15.80;99.90;;;16.83;100.00;100722.72;5075209;28;19931;-67
2021/07/30 06:09:18;;;;;;;;;;;16.70;99.90;;;17.99;100.00;100715.13;5074897;28;20382;-66
2021/07/30 06:11:45;;;;;;;;;;;17.80;99.90;;;18.81;97.38;100710.22;5074361;28;19967;-65
2021/07/30 06:14:13;;;;;;;;;;;18.80;99.90;;;19.86;89.40;100709.56;5074458;28;19929;-64
2021/07/30 06:16:41;;;;;;;;;;;19.80;99.90;;;20.76;81.64;100707.75;5074992;28;20019;-66
2021/07/30 06:19:10;;;;;;;;;;;20.90;99.90;;;21.09;77.86;100710.81;5074946;28;20294;-64
2021/07/30 06:21:38;;;;;;;;;;;21.50;99.90;;;21.42;75.94;100708.31;5074436;28;20444;-66
2021/07/30 06:24:07;;;;;;;;;;;22.00;99.90;;;21.77;73.91;100708.13;5073857;28;19930;-64
2021/07/30 06:26:34;;;;;;;;;;;22.40;99.90;;;22.63;70.34;100716.56;5074686;28;19928;-64
2021/07/30 06:29:02;;;;;;;;;;;23.10;99.90;;;23.44;66.65;100709.31;5074872;28;19966;-65
2021/07/30 06:31:30;;;;;;;;;;;24.20;99.90;;;23.88;64.92;100710.13;5074428;28;19924;-66
2021/07/30 06:33:58;;;;;;;;;;;;;;;24.85;60.84;100713.16;5073664;28;19924;-65
2021/07/30 06:36:28;;;;;;;;;;;25.90;99.90;;;25.47;57.68;100704.66;5074310;28;19928;-66
2021/07/30 06:38:55;;;;;;;;;;;26.10;99.90;;;26.52;54.05;100690.00;5074524;28;19933;-65
2021/07/30 06:41:23;;;;;;;;;;;26.80;99.90;;;26.95;52.53;100698.19;5074157;28;19931;-66
2021/07/30 06:43:51;;;;;;;;;;;27.70;99.90;;;27.49;50.39;100691.94;5073465;28;19931;-66
2021/07/30 06:46:19;;;;;;;;;;;28.40;99.90;;;28.09;47.96;100701.78;5074069;28;19978;-65
2021/07/30 06:48:47;;;;;;;;;;;28.60;99.90;;;28.39;47.02;100701.88;5074476;28;19924;-65
2021/07/30 06:51:15;;;;;;;;;;;29.00;99.90;;;28.64;46.07;100696.06;5074321;28;20302;-65
2021/07/30 06:53:44;;;;;;;;;;;29.30;99.90;;;28.68;45.50;100694.84;5073237;28;19931;-66
2021/07/30 06:56:12;;;;;;;;;;;29.60;99.90;;;28.64;45.66;100707.19;5073865;28;19931;-65
2021/07/30 06:58:41;;;;;;;;;;;29.90;99.90;;;28.53;45.58;100703.75;5074263;28;20009;-65
2021/07/30 07:01:09;;;;;;;;;;;30.10;99.90;;;28.29;46.27;100702.00;5074186;28;19931;-66
2021/07/30 07:03:36;;;;;;;;;;;30.40;99.90;;;28.09;47.70;100705.38;5072891;28;19930;-65
2021/07/30 07:06:04;;;;;;;;;;;30.40;99.90;;;27.89;47.83;100706.31;5073634;28;20018;-67
2021/07/30 07:08:32;;;;;;;;;;;30.40;99.90;;;27.31;48.86;100707.09;5073998;28;19932;-65
2021/07/30 07:11:04;;;;;;;;;;;30.20;99.90;;;26.60;50.60;100718.47;5073408;28;19924;-65
2021/07/30 07:13:32;;;;;;;;;;;30.00;99.90;;;25.96;53.29;100724.09;5072362;28;19932;-65
2021/07/30 07:16:00;;;;;;;;;;;;;;;25.31;54.95;100729.94;5073190;28;19963;-66
2021/07/30 07:18:28;;;;;;;;;;;27.80;99.90;;;24.80;58.10;100735.66;5073745;28;19948;-66
2021/07/30 07:20:57;;;;;;;;;;;26.90;99.90;;;24.32;60.33;100736.91;5073810;28;20283;-65
2021/07/30 07:23:25;;;;;;;;;;;25.90;99.90;;;24.06;61.01;100728.78;5072581;28;19928;-65
2021/07/30 07:25:53;;;;;;;;;;;25.20;99.90;;;23.71;61.52;100727.31;5072940;28;19928;-65
2021/07/30 07:28:23;;;;;;;;;;;24.60;99.90;;;23.44;63.16;100733.38;5073479;28;20295;-65
2021/07/30 07:30:53;;;;;;;;;;;24.10;99.90;;;23.15;64.20;100743.25;5073434;28;19924;-65
2021/07/30 07:33:21;;;;;;;;;;;23.70;99.90;;;22.92;66.01;100745.34;5072551;28;19921;-65
2021/07/30 07:35:49;;;;;;;;;;;23.40;99.90;;;22.70;66.82;100747.81;5072770;28;19925;-65
2021/07/30 07:38:17;;;;;;;;;;;23.20;99.90;;;22.63;68.60;100750.44;5073288;28;19935;-65
2021/07/30 07:40:46;;;;;;;;;;;23.10;99.90;;;22.55;68.77;100753.47;5073385;28;19926;-65
2021/07/30 07:43:14;;;;;;;;;;;23.00;99.90;;;22.42;68.99;100747.38;5072068;28;20362;-65
2021/07/30 07:45:44;;;;;;;;;;;22.90;99.90;;;22.19;69.87;100750.16;5072499;28;19928;-66
2021/07/30 07:48:12;;;;;;;;;;;22.70;99.90;;;22.11;71.35;100753.97;5073091;28;20291;-63
2021/07/30 07:50:40;;;;;;;;;;;22.60;99.90;;;22.16;72.23;100750.91;5073255;28;19931;-66
2021/07/30 07:53:15;;;;;;;;;;;22.60;99.90;;;22.34;71.50;100751.19;5072371;28;19930;-64
2021/07/30 07:55:43;;;;;;;;;;;22.70;99.90;;;22.52;72.29;100757.75;5072364;28;19929;-66
2021/07/30 07:58:11;;;;;;;;;;;22.80;99.90;;;22.64;71.01;100762.25;5072775;28;20034;-66
2021/07/30 08:00:40;;;;;;;;;;;22.90;99.90;;;22.50;70.97;100762.84;5072986;28;19925;-65
2021/07/30 08:03:10;;;;;;;;;;;22.90;99.90;;;22.50;71.09;100762.84;5072069;28;20358;-66
2021/07/30 08:05:39;;;;;;;;;;;22.80;99.90;;;22.60;71.61;100772.44;5072356;28;19928;-66
2021/07/30 08:08:08;;;;;;;;;;;22.90;99.90;;;22.51;71.35;100764.44;5072572;28;19939;-65
2021/07/30 08:10:36;;;;;;;;;;;22.90;99.90;;;22.54;70.29;100771.97;5072908;28;20306;-65
2021/07/30 08:13:04;;;;;;;;;;;22.80;99.90;;;22.76;69.89;100773.09;5072011;28;19986;-65
2021/07/30 08:15:32;;;;;;;;;;;23.00;99.90;;;22.73;70.15;100768.31;5072325;28;19966;-66
2021/07/30 08:18:00;;;;;;;;;;;23.10;99.90;;;22.96;70.14;100771.78;5072520;28;19959;-66
2021/07/30 08:20:29;;;;;;;;;;;23.20;99.90;;;23.18;69.45;100776.41;5072686;28;20038;-65
2021/07/30 08:22:57;;;;;;;;;;;23.50;99.90;;;23.20;68.07;100778.78;5071432;28;20023;-65
2021/07/30 08:25:25;;;;;;;;;;;23.50;99.90;;;23.16;67.30;100781.47;5072151;28;20383;-65
2021/07/30 08:27:53;;;;;;;;;;;23.50;99.90;;;23.27;68.66;100771.38;5072387;28;19929;-67
2021/07/30 08:30:20;;;;;;;;;;;23.60;99.90;;;23.38;68.68;100774.25;5072552;28;20023;-65
2021/07/30 08:32:48;;;;;;;;;;;23.70;99.90;;;23.46;67.06;100769.66;5071737;28;20355;-66
2021/07/30 08:35:16;;;;;;;;;;;23.80;99.90;;;23.32;67.57;100762.75;5071830;28;19986;-65
2021/07/30 08:37:46;;;;;;;;;;;23.70;99.90;;;23.24;67.64;100763.06;5072436;28;20031;-65
2021/07/30 08:40:15;;;;;;;;;;;23.70;99.90;;;23.22;67.95;100757.13;5072404;28;20086;-67
2021/07/30 08:42:43;;;;;;;;;;;23.60;99.90;;;23.32;67.84;100761.97;5071501;28;20023;-66
2021/07/30 08:45:14;;;;;;;;;;;23.60;99.90;;;23.42;68.86;100764.09;5071173;28;20465;-64
2021/07/30 08:47:42;;;;;;;;;;;23.80;99.90;;;23.41;67.80;100758.97;5072249;28;19936;-65
2021/07/30 08:50:11;;;;;;;;;;;23.80;99.90;;;23.45;67.54;100762.53;5072433;28;20019;-67
2021/07/30 08:52:42;;;;;;;;;;;24.00;99.90;;;23.64;67.55;100768.66;5071567;28;19930;-63
2021/07/30 08:55:15;;;;;;;;;;;24.10;99.90;;;23.64;66.60;100768.66;5071770;28;19930;-66
2021/07/30 08:57:43;;;;;;;;;;;24.10;99.90;;;23.66;67.20;100758.03;5072328;28;19982;-66
2021/07/30 09:00:13;;;;;;;;;;;24.10;99.90;;;23.69;67.10;100759.25;5072170;28;20014;-63
2021/07/30 09:02:41;;;;;;;;;;;24.20;99.90;;;23.85;67.67;100768.88;5071438;28;19925;-63
2021/07/30 09:05:29;;;;;;;;;;;24.30;99.90;;;23.86;67.90;100756.63;5071575;28;19931;-66
2021/07/30 09:07:57;;;;;;;;;;;24.30;99.90;;;23.89;66.63;100753.13;5072100;28;19951;-67
2021/07/30 09:10:32;;;;;;;;;;;24.40;99.90;;;23.90;67.01;100751.16;5072124;28;20383;-65
2021/07/30 09:13:21;;;;;;;;;;;24.40;99.90;;;23.92;66.93;100755.13;5071193;28;19931;-66
2021/07/30 09:15:50;;;;;;;;;;;24.50;99.90;;;23.88;66.93;100754.31;5071736;28;19925;-65
2021/07/30 09:18:29;;;;;;;;;;;24.40;99.90;;;23.95;66.80;100761.88;5071931;28;20282;-64
2021/07/30 09:20:57;;;;;;;;;;;24.40;99.90;;;23.99;66.36;100759.13;5071896;28;20294;-65
2021/07/30 09:23:27;;;;;;;;;;;24.50;99.90;;;23.83;65.76;100765.69;5071073;28;19931;-66
2021/07/30 09:25:56;;;;;;;;;;;24.40;99.90;;;23.72;66.79;100759.28;5071684;28;19932;-66
2021/07/30 09:28:24;;;;;;;;;;;24.30;99.90;;;23.68;66.82;100760.44;5071804;28;20372;-65
2021/07/30 09:31:00;;;;;;;;;;;24.20;99.90;;;23.73;67.92;100760.88;5071920;28;19931;-65
2021/07/30 09:33:29;;;;;;;;;;;24.20;99.90;;;23.71;67.52;100760.44;5071094;28;19929;-66
2021/07/30 09:35:57;;;;;;;;;;;24.20;99.90;;;23.68;66.50;100766.72;5073783;28;20027;-65
2021/07/30 09:38:26;;;;;;;;;;;24.20;99.90;;;23.71;66.25;100767.97;5075396;28;19931;-65
2021/07/30 09:41:15;;;;;;;;;;;24.20;99.90;;;23.74;67.04;100762.44;5075539;28;19928;-66
2021/07/30 09:43:46;;;;;;;;;;;24.20;99.90;;;23.80;66.08;100774.72;5074836;28;20024;-65
2021/07/30 09:46:15;;;;;;;;;;;24.20;99.90;;;23.80;65.88;100771.97;5075214;28;19925;-66
2021/07/30 09:48:50;;;;;;;;;;;24.30;99.90;;;23.84;67.04;100781.09;5075367;28;19924;-65
2021/07/30 09:51:18;;;;;;;;;;;24.30;99.90;;;23.87;67.08;100785.84;5075385;28;20471;-66
2021/07/30 09:53:46;;;;;;;;;;;24.30;99.90;;;23.80;65.62;100782.25;5074577;28;19932;-65
2021/07/30 09:56:16;;;;;;;;;;;24.30;99.90;;;23.76;65.97;100779.44;5074941;28;19929;-66
2021/07/30 09:58:46;;;;;;;;;;;24.20;99.90;;;23.63;66.63;100780.88;5074972;28;19971;-65
2021/07/30 10:01:16;;;;;;;;;;;24.10;99.90;;;23.62;66.09;100779.28;5075236;28;19931;-65
2021/07/30 10:03:45;;;;;;;;;;;24.10;99.90;;;23.54;67.02;100780.38;5074432;28;20310;-65
2021/07/30 10:06:14;;;;;;;;;;;24.00;99.90;;;23.53;66.84;100775.25;5074710;28;20356;-65
2021/07/30 10:08:43;;;;;;;;;;;24.00;99.90;;;23.52;66.61;100774.47;5074901;28;19925;-65
2021/07/30 10:11:12;;;;;;;;;;;24.00;99.90;;;23.56;66.50;100766.22;5074912;28;19924;-65
2021/07/30 10:13:50;;;;;;;;;;;24.00;99.90;;;23.65;67.41;100772.22;5074047;28;19924;-66
2021/07/30 10:16:19;;;;;;;;;;;24.00;99.90;;;23.76;64.99;100775.88;5074519;28;20382;-66
2021/07/30 10:18:49;;;;;;;;;;;24.10;99.90;;;23.70;64.28;100780.97;5074644;28;20022;-66
2021/07/30 10:21:20;;;;;;;;;;;24.10;99.90;;;23.65;65.28;100784.03;5074656;28;19968;-65
2021/07/30 10:23:51;;;;;;;;;;;24.10;99.90;;;23.56;66.17;100780.03;5074093;28;19955;-64
2021/07/30 10:26:25;;;;;;;;;;;24.00;99.90;;;23.53;65.22;100778.78;5074146;28;19924;-66
2021/07/30 10:28:59;;;;;;;;;;;24.00;99.90;;;23.53;65.61;100773.28;5074617;28;20276;-65
2021/07/30 10:31:48;;;;;;;;;;;24.00;99.90;;;23.62;64.95;100775.75;5074582;28;19931;-66
2021/07/30 10:34:17;;;;;;;;;;;24.00;99.90;;;23.64;65.21;100788.00;5074313;28;20367;-66
2021/07/30 10:36:45;;;;;;;;;;;24.10;99.90;;;23.63;65.16;100786.41;5074439;28;19924;-65
2021/07/30 10:39:16;;;;;;;;;;;24.10;99.90;;;23.51;66.27;100783.09;5074256;28;19935;-65
2021/07/30 10:42:14;;;;;;;;;;;24.00;99.90;;;23.39;66.83;100778.66;5073794;28;19931;-66
2021/07/30 10:45:21;;;;;;;;;;;23.90;99.90;;;23.39;67.78;100781.41;5073967;28;20393;-65
2021/07/30 10:48:36;;;;;;;;;;;23.90;99.90;;;23.46;69.14;100778.72;5032087;28;19932;-65
2021/07/30 10:51:23;;;;;;;;;;;23.90;99.90;;;23.72;69.40;100788.84;5074412;28;19933;-66
2021/07/30 10:53:52;;;;;;;;;;;24.10;99.90;;;23.97;68.65;100781.59;5073586;28;19928;-65
2021/07/30 10:56:50;;;;;;;;;;;24.30;99.90;;;23.98;67.39;100785.16;5073936;28;19946;-67
2021/07/30 10:59:21;;;;;;;;;;;24.40;99.90;;;23.90;69.20;100789.81;5073910;28;19974;-63
2021/07/30 11:02:00;;;;;;;;;;;24.40;99.90;;;23.94;68.88;100785.94;5073428;28;19928;-67
2021/07/30 11:04:29;;;;;;;;;;;24.40;99.90;;;24.06;68.65;100781.28;5073661;28;20031;-65
2021/07/30 11:06:58;;;;;;;;;;;24.40;99.90;;;24.13;66.71;100782.19;5073927;28;19928;-65
2021/07/30 11:09:27;;;;;;;;;;;24.60;99.90;;;24.32;66.11;100789.41;5073531;28;19979;-65
2021/07/30 11:11:55;;;;;;;;;;;24.70;99.90;;;24.28;66.07;100789.41;5073243;28;19954;-66
2021/07/30 11:14:24;;;;;;;;;;;24.70;99.90;;;24.25;66.37;100792.94;5073471;28;19930;-66
2021/07/30 11:16:54;;;;;;;;;;;24.70;99.90;;;24.17;67.95;100794.03;5073625;28;19928;-65
2021/07/30 11:19:26;;;;;;;;;;;24.60;99.90;;;24.15;67.74;100781.78;5073543;28;20027;-65